Psebay, Russia
Current Conditions -  °F | °C
As of 3:00 AM on Thursday 27 Nov 2014 (Local Time) from URSS Reporting Station
Overcast Overcast  
Wind Chill: 45°   Ceiling: 10000
Heat Index: 45°   Visibility: 6mi
Dew Point: 36°   Wind: 2mph
Humidity: 71%   Direction: 50°NE
Pressure: 29.94"   Gusts: NA
Location:  44.11°N, 40.77°E
Report Text: URSS 270000Z 05001MPS 9999 BKN100 OVC230 07/02 Q1014 NOSIG RMKR02/04004MPS QFE759 06000070 02000070
Loading
Personal Weather Stations






























Interactive Weather Map New forecast layout! Learn more

10-Day Weather Forecast

Advertisements
Track Severe Weather on mobile